sensor_id;sensor_type;location;lat;lon;timestamp;P1;durP1;ratioP1;P2;durP2;ratioP2
53666;SDS011;39568;51.026;5.468;2023-10-13T00:01:47;33.15;;;19.83;;
53666;SDS011;39568;51.026;5.468;2023-10-13T00:04:17;34.20;;;19.58;;
53666;SDS011;39568;51.026;5.468;2023-10-13T00:06:50;36.05;;;18.42;;
53666;SDS011;39568;51.026;5.468;2023-10-13T00:09:17;38.08;;;20.77;;
53666;SDS011;39568;51.026;5.468;2023-10-13T00:11:48;33.95;;;19.80;;
53666;SDS011;39568;51.026;5.468;2023-10-13T00:14:17;36.83;;;19.85;;
53666;SDS011;39568;51.026;5.468;2023-10-13T00:16:47;32.40;;;18.75;;
53666;SDS011;39568;51.026;5.468;2023-10-13T00:19:28;39.55;;;19.65;;
53666;SDS011;39568;51.026;5.468;2023-10-13T00:22:06;41.60;;;19.73;;
53666;SDS011;39568;51.026;5.468;2023-10-13T00:24:37;39.13;;;20.65;;
53666;SDS011;39568;51.026;5.468;2023-10-13T00:27:10;40.22;;;20.23;;
53666;SDS011;39568;51.026;5.468;2023-10-13T00:29:53;33.70;;;19.92;;
53666;SDS011;39568;51.026;5.468;2023-10-13T00:32:41;35.45;;;20.70;;
53666;SDS011;39568;51.026;5.468;2023-10-13T00:35:09;36.50;;;21.45;;
53666;SDS011;39568;51.026;5.468;2023-10-13T00:37:40;39.80;;;21.58;;
53666;SDS011;39568;51.026;5.468;2023-10-13T00:40:10;39.45;;;20.88;;
53666;SDS011;39568;51.026;5.468;2023-10-13T00:43:03;43.85;;;22.13;;
53666;SDS011;39568;51.026;5.468;2023-10-13T00:45:50;35.83;;;20.95;;
53666;SDS011;39568;51.026;5.468;2023-10-13T00:48:22;41.00;;;21.85;;
53666;SDS011;39568;51.026;5.468;2023-10-13T00:50:54;43.67;;;21.90;;
53666;SDS011;39568;51.026;5.468;2023-10-13T00:53:24;44.03;;;24.30;;
53666;SDS011;39568;51.026;5.468;2023-10-13T00:55:54;35.10;;;22.27;;
53666;SDS011;39568;51.026;5.468;2023-10-13T00:58:21;44.97;;;22.38;;
53666;SDS011;39568;51.026;5.468;2023-10-13T01:00:48;42.60;;;21.85;;
53666;SDS011;39568;51.026;5.468;2023-10-13T01:03:23;41.40;;;21.52;;
53666;SDS011;39568;51.026;5.468;2023-10-13T01:06:01;38.20;;;21.38;;
53666;SDS011;39568;51.026;5.468;2023-10-13T01:08:32;38.80;;;23.13;;
53666;SDS011;39568;51.026;5.468;2023-10-13T01:11:03;45.85;;;21.27;;
53666;SDS011;39568;51.026;5.468;2023-10-13T01:13:32;42.35;;;22.35;;
53666;SDS011;39568;51.026;5.468;2023-10-13T01:16:01;43.40;;;21.98;;
53666;SDS011;39568;51.026;5.468;2023-10-13T01:18:33;38.00;;;20.20;;
53666;SDS011;39568;51.026;5.468;2023-10-13T01:21:05;35.38;;;18.58;;
53666;SDS011;39568;51.026;5.468;2023-10-13T01:23:33;38.10;;;21.35;;
53666;SDS011;39568;51.026;5.468;2023-10-13T01:26:03;37.35;;;20.40;;
53666;SDS011;39568;51.026;5.468;2023-10-13T01:28:31;33.20;;;21.05;;
53666;SDS011;39568;51.026;5.468;2023-10-13T01:31:09;42.33;;;22.50;;
53666;SDS011;39568;51.026;5.468;2023-10-13T01:33:37;37.92;;;20.55;;
53666;SDS011;39568;51.026;5.468;2023-10-13T01:36:04;32.20;;;19.98;;
53666;SDS011;39568;51.026;5.468;2023-10-13T01:38:36;33.13;;;21.30;;
53666;SDS011;39568;51.026;5.468;2023-10-13T01:41:04;43.38;;;19.73;;
53666;SDS011;39568;51.026;5.468;2023-10-13T01:43:30;36.05;;;19.42;;
53666;SDS011;39568;51.026;5.468;2023-10-13T01:45:57;34.17;;;21.02;;
53666;SDS011;39568;51.026;5.468;2023-10-13T01:48:23;44.17;;;21.50;;
53666;SDS011;39568;51.026;5.468;2023-10-13T01:50:49;41.22;;;21.63;;
53666;SDS011;39568;51.026;5.468;2023-10-13T01:53:20;40.80;;;22.10;;
53666;SDS011;39568;51.026;5.468;2023-10-13T01:55:51;46.88;;;22.50;;
53666;SDS011;39568;51.026;5.468;2023-10-13T01:58:22;43.53;;;20.38;;
53666;SDS011;39568;51.026;5.468;2023-10-13T02:00:51;47.92;;;21.85;;
53666;SDS011;39568;51.026;5.468;2023-10-13T02:03:17;46.13;;;19.33;;
53666;SDS011;39568;51.026;5.468;2023-10-13T02:05:47;42.83;;;19.95;;
53666;SDS011;39568;51.026;5.468;2023-10-13T02:08:13;43.63;;;22.38;;
53666;SDS011;39568;51.026;5.468;2023-10-13T02:10:48;35.45;;;21.08;;
53666;SDS011;39568;51.026;5.468;2023-10-13T02:13:16;43.08;;;23.08;;
53666;SDS011;39568;51.026;5.468;2023-10-13T02:15:47;39.03;;;22.52;;
53666;SDS011;39568;51.026;5.468;2023-10-13T02:18:17;44.90;;;21.45;;
53666;SDS011;39568;51.026;5.468;2023-10-13T02:20:46;45.33;;;20.98;;
53666;SDS011;39568;51.026;5.468;2023-10-13T02:23:19;43.63;;;20.60;;
53666;SDS011;39568;51.026;5.468;2023-10-13T02:25:46;42.08;;;22.58;;
53666;SDS011;39568;51.026;5.468;2023-10-13T02:28:12;49.50;;;21.73;;
53666;SDS011;39568;51.026;5.468;2023-10-13T02:30:48;33.83;;;20.20;;
53666;SDS011;39568;51.026;5.468;2023-10-13T02:33:15;43.78;;;20.98;;
53666;SDS011;39568;51.026;5.468;2023-10-13T02:35:46;47.78;;;22.40;;
53666;SDS011;39568;51.026;5.468;2023-10-13T02:38:18;39.28;;;19.83;;
53666;SDS011;39568;51.026;5.468;2023-10-13T02:40:53;43.97;;;21.10;;
53666;SDS011;39568;51.026;5.468;2023-10-13T02:43:19;39.60;;;19.23;;
53666;SDS011;39568;51.026;5.468;2023-10-13T02:45:58;41.67;;;20.33;;
53666;SDS011;39568;51.026;5.468;2023-10-13T02:48:25;37.97;;;19.15;;
53666;SDS011;39568;51.026;5.468;2023-10-13T02:50:56;41.78;;;19.85;;
53666;SDS011;39568;51.026;5.468;2023-10-13T02:53:27;41.95;;;20.27;;
53666;SDS011;39568;51.026;5.468;2023-10-13T02:55:55;40.72;;;20.20;;
53666;SDS011;39568;51.026;5.468;2023-10-13T02:58:24;42.90;;;20.75;;
53666;SDS011;39568;51.026;5.468;2023-10-13T03:01:06;35.97;;;17.83;;
53666;SDS011;39568;51.026;5.468;2023-10-13T03:03:42;35.20;;;17.08;;
53666;SDS011;39568;51.026;5.468;2023-10-13T03:06:15;42.65;;;20.02;;
53666;SDS011;39568;51.026;5.468;2023-10-13T03:08:42;34.03;;;18.27;;
53666;SDS011;39568;51.026;5.468;2023-10-13T03:11:09;33.55;;;17.42;;
53666;SDS011;39568;51.026;5.468;2023-10-13T03:13:36;41.05;;;17.38;;
53666;SDS011;39568;51.026;5.468;2023-10-13T03:16:13;38.10;;;16.27;;
53666;SDS011;39568;51.026;5.468;2023-10-13T03:18:41;35.50;;;17.63;;
53666;SDS011;39568;51.026;5.468;2023-10-13T03:21:16;39.45;;;16.77;;
53666;SDS011;39568;51.026;5.468;2023-10-13T03:23:53;40.33;;;17.88;;
53666;SDS011;39568;51.026;5.468;2023-10-13T03:26:19;39.85;;;17.38;;
53666;SDS011;39568;51.026;5.468;2023-10-13T03:28:46;33.97;;;17.45;;
53666;SDS011;39568;51.026;5.468;2023-10-13T03:31:18;45.28;;;17.20;;
53666;SDS011;39568;51.026;5.468;2023-10-13T03:33:48;36.33;;;17.80;;
53666;SDS011;39568;51.026;5.468;2023-10-13T03:36:21;31.38;;;16.00;;
53666;SDS011;39568;51.026;5.468;2023-10-13T03:39:20;32.45;;;16.58;;
53666;SDS011;39568;51.026;5.468;2023-10-13T03:41:53;32.05;;;16.52;;
53666;SDS011;39568;51.026;5.468;2023-10-13T03:44:19;33.67;;;16.65;;
53666;SDS011;39568;51.026;5.468;2023-10-13T03:46:49;24.88;;;14.60;;
53666;SDS011;39568;51.026;5.468;2023-10-13T03:51:47;31.50;;;17.25;;
53666;SDS011;39568;51.026;5.468;2023-10-13T03:54:14;39.17;;;15.25;;
53666;SDS011;39568;51.026;5.468;2023-10-13T03:56:42;33.55;;;16.08;;
53666;SDS011;39568;51.026;5.468;2023-10-13T03:59:10;28.05;;;14.23;;
53666;SDS011;39568;51.026;5.468;2023-10-13T04:01:43;24.90;;;13.10;;
53666;SDS011;39568;51.026;5.468;2023-10-13T04:04:14;32.33;;;13.65;;
53666;SDS011;39568;51.026;5.468;2023-10-13T04:06:59;26.02;;;13.85;;
53666;SDS011;39568;51.026;5.468;2023-10-13T04:09:38;35.45;;;14.55;;
53666;SDS011;39568;51.026;5.468;2023-10-13T04:12:44;37.95;;;13.82;;
53666;SDS011;39568;51.026;5.468;2023-10-13T04:15:28;32.40;;;14.88;;
53666;SDS011;39568;51.026;5.468;2023-10-13T04:18:04;28.70;;;13.10;;
53666;SDS011;39568;51.026;5.468;2023-10-13T04:20:45;42.92;;;13.80;;
53666;SDS011;39568;51.026;5.468;2023-10-13T04:23:29;28.95;;;13.88;;
53666;SDS011;39568;51.026;5.468;2023-10-13T04:26:15;34.13;;;13.80;;
53666;SDS011;39568;51.026;5.468;2023-10-13T04:28:46;32.65;;;14.02;;
53666;SDS011;39568;51.026;5.468;2023-10-13T04:31:21;24.55;;;14.25;;
53666;SDS011;39568;51.026;5.468;2023-10-13T04:34:10;29.40;;;12.13;;
53666;SDS011;39568;51.026;5.468;2023-10-13T04:36:46;25.38;;;13.43;;
53666;SDS011;39568;51.026;5.468;2023-10-13T04:39:12;32.22;;;12.00;;
53666;SDS011;39568;51.026;5.468;2023-10-13T04:41:54;23.13;;;13.40;;
53666;SDS011;39568;51.026;5.468;2023-10-13T04:44:23;22.85;;;13.35;;
53666;SDS011;39568;51.026;5.468;2023-10-13T04:47:04;29.52;;;12.50;;
53666;SDS011;39568;51.026;5.468;2023-10-13T04:49:35;25.38;;;11.20;;
53666;SDS011;39568;51.026;5.468;2023-10-13T04:52:18;24.23;;;11.70;;
53666;SDS011;39568;51.026;5.468;2023-10-13T04:55:03;21.00;;;10.32;;
53666;SDS011;39568;51.026;5.468;2023-10-13T04:57:58;22.17;;;10.30;;
53666;SDS011;39568;51.026;5.468;2023-10-13T05:00:36;27.27;;;11.52;;
53666;SDS011;39568;51.026;5.468;2023-10-13T05:03:21;17.38;;;8.45;;
53666;SDS011;39568;51.026;5.468;2023-10-13T05:06:17;27.33;;;11.25;;
53666;SDS011;39568;51.026;5.468;2023-10-13T05:09:03;18.20;;;9.95;;
53666;SDS011;39568;51.026;5.468;2023-10-13T05:11:47;26.02;;;9.65;;
53666;SDS011;39568;51.026;5.468;2023-10-13T05:14:31;20.10;;;9.50;;
53666;SDS011;39568;51.026;5.468;2023-10-13T05:17:15;26.52;;;10.77;;
53666;SDS011;39568;51.026;5.468;2023-10-13T05:19:59;29.63;;;9.45;;
53666;SDS011;39568;51.026;5.468;2023-10-13T05:22:43;26.42;;;10.27;;
53666;SDS011;39568;51.026;5.468;2023-10-13T05:25:28;19.58;;;8.93;;
53666;SDS011;39568;51.026;5.468;2023-10-13T05:28:12;22.65;;;9.15;;
53666;SDS011;39568;51.026;5.468;2023-10-13T05:30:58;23.63;;;8.93;;
53666;SDS011;39568;51.026;5.468;2023-10-13T05:33:43;16.70;;;7.95;;
53666;SDS011;39568;51.026;5.468;2023-10-13T05:36:32;23.88;;;9.88;;
53666;SDS011;39568;51.026;5.468;2023-10-13T05:39:16;21.58;;;7.63;;
53666;SDS011;39568;51.026;5.468;2023-10-13T05:42:02;23.70;;;8.32;;
53666;SDS011;39568;51.026;5.468;2023-10-13T05:44:55;14.82;;;6.25;;
53666;SDS011;39568;51.026;5.468;2023-10-13T05:47:48;20.45;;;8.48;;
53666;SDS011;39568;51.026;5.468;2023-10-13T05:50:26;20.38;;;8.73;;
53666;SDS011;39568;51.026;5.468;2023-10-13T05:53:15;20.05;;;9.27;;
53666;SDS011;39568;51.026;5.468;2023-10-13T05:56:03;28.90;;;9.27;;
53666;SDS011;39568;51.026;5.468;2023-10-13T05:58:49;27.52;;;9.02;;
53666;SDS011;39568;51.026;5.468;2023-10-13T06:01:33;20.33;;;8.45;;
53666;SDS011;39568;51.026;5.468;2023-10-13T06:04:17;20.42;;;8.93;;
53666;SDS011;39568;51.026;5.468;2023-10-13T06:07:01;28.50;;;8.75;;
53666;SDS011;39568;51.026;5.468;2023-10-13T06:09:45;19.80;;;7.93;;
53666;SDS011;39568;51.026;5.468;2023-10-13T06:12:29;18.70;;;7.47;;
53666;SDS011;39568;51.026;5.468;2023-10-13T06:15:15;24.52;;;8.82;;
53666;SDS011;39568;51.026;5.468;2023-10-13T06:17:59;23.17;;;8.65;;
53666;SDS011;39568;51.026;5.468;2023-10-13T06:20:43;23.83;;;9.70;;
53666;SDS011;39568;51.026;5.468;2023-10-13T06:23:27;27.00;;;8.90;;
53666;SDS011;39568;51.026;5.468;2023-10-13T06:26:11;24.42;;;8.52;;
53666;SDS011;39568;51.026;5.468;2023-10-13T06:28:55;15.80;;;8.20;;
53666;SDS011;39568;51.026;5.468;2023-10-13T06:31:23;68.75;;;32.28;;
53666;SDS011;39568;51.026;5.468;2023-10-13T06:33:51;24.40;;;9.75;;
53666;SDS011;39568;51.026;5.468;2023-10-13T06:36:20;22.02;;;9.23;;
53666;SDS011;39568;51.026;5.468;2023-10-13T06:38:47;17.90;;;8.77;;
53666;SDS011;39568;51.026;5.468;2023-10-13T06:41:20;38.97;;;14.15;;
53666;SDS011;39568;51.026;5.468;2023-10-13T06:43:55;42.80;;;14.93;;
53666;SDS011;39568;51.026;5.468;2023-10-13T06:46:29;31.58;;;13.60;;
53666;SDS011;39568;51.026;5.468;2023-10-13T06:48:58;21.50;;;8.05;;
53666;SDS011;39568;51.026;5.468;2023-10-13T06:51:27;17.48;;;7.60;;
53666;SDS011;39568;51.026;5.468;2023-10-13T06:54:02;18.85;;;6.88;;
53666;SDS011;39568;51.026;5.468;2023-10-13T06:56:34;25.92;;;8.63;;
53666;SDS011;39568;51.026;5.468;2023-10-13T06:59:04;23.27;;;9.00;;
53666;SDS011;39568;51.026;5.468;2023-10-13T07:01:33;21.65;;;7.20;;
53666;SDS011;39568;51.026;5.468;2023-10-13T07:04:04;22.42;;;7.38;;
53666;SDS011;39568;51.026;5.468;2023-10-13T07:06:38;19.75;;;7.28;;
53666;SDS011;39568;51.026;5.468;2023-10-13T07:09:07;24.15;;;7.30;;
53666;SDS011;39568;51.026;5.468;2023-10-13T07:11:40;24.80;;;7.20;;
53666;SDS011;39568;51.026;5.468;2023-10-13T07:14:08;20.85;;;7.72;;
53666;SDS011;39568;51.026;5.468;2023-10-13T07:16:41;10.82;;;6.88;;
53666;SDS011;39568;51.026;5.468;2023-10-13T07:19:11;20.80;;;6.22;;
53666;SDS011;39568;51.026;5.468;2023-10-13T07:21:42;27.45;;;6.38;;
53666;SDS011;39568;51.026;5.468;2023-10-13T07:24:11;25.05;;;6.68;;
53666;SDS011;39568;51.026;5.468;2023-10-13T07:26:38;16.35;;;5.90;;
53666;SDS011;39568;51.026;5.468;2023-10-13T07:29:11;18.08;;;5.72;;
53666;SDS011;39568;51.026;5.468;2023-10-13T07:31:39;16.23;;;5.80;;
53666;SDS011;39568;51.026;5.468;2023-10-13T07:34:09;11.60;;;6.00;;
53666;SDS011;39568;51.026;5.468;2023-10-13T07:36:50;17.75;;;6.45;;
53666;SDS011;39568;51.026;5.468;2023-10-13T07:39:18;19.05;;;5.60;;
53666;SDS011;39568;51.026;5.468;2023-10-13T07:41:48;32.25;;;5.47;;
53666;SDS011;39568;51.026;5.468;2023-10-13T07:44:20;29.75;;;6.13;;
53666;SDS011;39568;51.026;5.468;2023-10-13T07:46:52;16.33;;;6.07;;
53666;SDS011;39568;51.026;5.468;2023-10-13T07:49:28;19.92;;;5.70;;
53666;SDS011;39568;51.026;5.468;2023-10-13T07:51:58;23.52;;;5.88;;
53666;SDS011;39568;51.026;5.468;2023-10-13T07:54:41;23.17;;;6.47;;
53666;SDS011;39568;51.026;5.468;2023-10-13T07:57:08;6.82;;;3.85;;
53666;SDS011;39568;51.026;5.468;2023-10-13T08:02:14;12.32;;;5.57;;
53666;SDS011;39568;51.026;5.468;2023-10-13T08:05:00;25.42;;;6.35;;
53666;SDS011;39568;51.026;5.468;2023-10-13T08:07:29;14.75;;;4.32;;
53666;SDS011;39568;51.026;5.468;2023-10-13T08:09:58;11.90;;;4.55;;
53666;SDS011;39568;51.026;5.468;2023-10-13T08:12:25;10.00;;;5.97;;
53666;SDS011;39568;51.026;5.468;2023-10-13T08:14:52;20.27;;;5.80;;
53666;SDS011;39568;51.026;5.468;2023-10-13T08:17:39;12.00;;;5.30;;
53666;SDS011;39568;51.026;5.468;2023-10-13T08:20:09;18.08;;;5.88;;
53666;SDS011;39568;51.026;5.468;2023-10-13T08:22:37;9.60;;;4.20;;
53666;SDS011;39568;51.026;5.468;2023-10-13T08:25:04;16.60;;;5.97;;
53666;SDS011;39568;51.026;5.468;2023-10-13T08:28:11;11.98;;;4.45;;
53666;SDS011;39568;51.026;5.468;2023-10-13T08:30:55;9.85;;;5.28;;
53666;SDS011;39568;51.026;5.468;2023-10-13T08:33:23;23.55;;;6.45;;
53666;SDS011;39568;51.026;5.468;2023-10-13T08:35:52;16.25;;;5.95;;
53666;SDS011;39568;51.026;5.468;2023-10-13T08:38:43;31.00;;;7.07;;
53666;SDS011;39568;51.026;5.468;2023-10-13T08:41:17;18.90;;;5.70;;
53666;SDS011;39568;51.026;5.468;2023-10-13T08:43:59;14.80;;;5.25;;
53666;SDS011;39568;51.026;5.468;2023-10-13T08:46:34;23.90;;;7.57;;
53666;SDS011;39568;51.026;5.468;2023-10-13T08:49:32;27.50;;;6.07;;
53666;SDS011;39568;51.026;5.468;2023-10-13T08:52:05;19.48;;;5.90;;
53666;SDS011;39568;51.026;5.468;2023-10-13T08:54:55;14.20;;;5.25;;
53666;SDS011;39568;51.026;5.468;2023-10-13T08:57:51;21.70;;;6.18;;
53666;SDS011;39568;51.026;5.468;2023-10-13T09:00:18;16.98;;;7.07;;
53666;SDS011;39568;51.026;5.468;2023-10-13T09:02:58;15.45;;;5.97;;
53666;SDS011;39568;51.026;5.468;2023-10-13T09:05:43;23.77;;;6.28;;
53666;SDS011;39568;51.026;5.468;2023-10-13T09:08:27;13.18;;;5.70;;
53666;SDS011;39568;51.026;5.468;2023-10-13T09:11:01;11.57;;;6.40;;
53666;SDS011;39568;51.026;5.468;2023-10-13T09:13:36;19.42;;;7.07;;
53666;SDS011;39568;51.026;5.468;2023-10-13T09:16:12;12.82;;;6.28;;
53666;SDS011;39568;51.026;5.468;2023-10-13T09:19:01;12.43;;;5.32;;
53666;SDS011;39568;51.026;5.468;2023-10-13T09:21:31;21.13;;;6.25;;
53666;SDS011;39568;51.026;5.468;2023-10-13T09:24:14;23.77;;;6.63;;
53666;SDS011;39568;51.026;5.468;2023-10-13T09:26:52;18.13;;;5.25;;
53666;SDS011;39568;51.026;5.468;2023-10-13T09:29:21;12.15;;;6.50;;
53666;SDS011;39568;51.026;5.468;2023-10-13T09:31:58;19.38;;;5.75;;
53666;SDS011;39568;51.026;5.468;2023-10-13T09:34:25;10.10;;;5.60;;
53666;SDS011;39568;51.026;5.468;2023-10-13T09:36:57;18.38;;;6.53;;
53666;SDS011;39568;51.026;5.468;2023-10-13T09:39:24;15.25;;;7.13;;
53666;SDS011;39568;51.026;5.468;2023-10-13T09:42:00;10.88;;;6.40;;
53666;SDS011;39568;51.026;5.468;2023-10-13T09:44:26;13.88;;;5.57;;
53666;SDS011;39568;51.026;5.468;2023-10-13T09:46:57;9.05;;;6.60;;
53666;SDS011;39568;51.026;5.468;2023-10-13T09:49:32;15.63;;;5.53;;
53666;SDS011;39568;51.026;5.468;2023-10-13T09:52:14;15.27;;;6.15;;
53666;SDS011;39568;51.026;5.468;2023-10-13T09:54:55;14.20;;;5.72;;
53666;SDS011;39568;51.026;5.468;2023-10-13T09:57:34;8.27;;;4.95;;
53666;SDS011;39568;51.026;5.468;2023-10-13T10:00:09;16.02;;;5.70;;
53666;SDS011;39568;51.026;5.468;2023-10-13T10:03:07;6.68;;;4.47;;
53666;SDS011;39568;51.026;5.468;2023-10-13T10:05:55;17.48;;;6.30;;
53666;SDS011;39568;51.026;5.468;2023-10-13T10:08:28;9.20;;;5.05;;
53666;SDS011;39568;51.026;5.468;2023-10-13T10:11:19;9.68;;;5.90;;
53666;SDS011;39568;51.026;5.468;2023-10-13T10:13:58;17.67;;;6.72;;
53666;SDS011;39568;51.026;5.468;2023-10-13T10:16:37;12.45;;;6.40;;
53666;SDS011;39568;51.026;5.468;2023-10-13T10:19:13;8.07;;;5.80;;
53666;SDS011;39568;51.026;5.468;2023-10-13T10:21:40;21.73;;;7.05;;
53666;SDS011;39568;51.026;5.468;2023-10-13T10:26:55;15.63;;;6.80;;
53666;SDS011;39568;51.026;5.468;2023-10-13T10:29:22;19.15;;;6.60;;
53666;SDS011;39568;51.026;5.468;2023-10-13T10:31:49;9.68;;;5.80;;
53666;SDS011;39568;51.026;5.468;2023-10-13T10:34:17;12.65;;;6.97;;
53666;SDS011;39568;51.026;5.468;2023-10-13T10:36:48;14.18;;;5.82;;
53666;SDS011;39568;51.026;5.468;2023-10-13T10:39:20;14.50;;;5.50;;
53666;SDS011;39568;51.026;5.468;2023-10-13T10:42:07;26.83;;;6.07;;
53666;SDS011;39568;51.026;5.468;2023-10-13T10:44:40;16.27;;;6.03;;
53666;SDS011;39568;51.026;5.468;2023-10-13T10:47:09;32.58;;;6.05;;
53666;SDS011;39568;51.026;5.468;2023-10-13T10:49:38;15.57;;;5.38;;
53666;SDS011;39568;51.026;5.468;2023-10-13T10:52:07;16.33;;;6.63;;
53666;SDS011;39568;51.026;5.468;2023-10-13T10:54:43;15.32;;;5.72;;
53666;SDS011;39568;51.026;5.468;2023-10-13T10:57:16;10.48;;;4.40;;
53666;SDS011;39568;51.026;5.468;2023-10-13T10:59:43;22.40;;;6.20;;
53666;SDS011;39568;51.026;5.468;2023-10-13T11:02:11;15.20;;;5.63;;
53666;SDS011;39568;51.026;5.468;2023-10-13T11:04:44;22.52;;;5.82;;
53666;SDS011;39568;51.026;5.468;2023-10-13T11:07:20;19.25;;;6.70;;
53666;SDS011;39568;51.026;5.468;2023-10-13T11:09:48;11.55;;;5.20;;
53666;SDS011;39568;51.026;5.468;2023-10-13T11:12:18;15.90;;;5.10;;
53666;SDS011;39568;51.026;5.468;2023-10-13T11:14:59;23.85;;;6.18;;
53666;SDS011;39568;51.026;5.468;2023-10-13T11:17:27;14.57;;;5.93;;
53666;SDS011;39568;51.026;5.468;2023-10-13T11:20:12;11.63;;;5.18;;
53666;SDS011;39568;51.026;5.468;2023-10-13T11:22:45;18.35;;;6.00;;
53666;SDS011;39568;51.026;5.468;2023-10-13T11:25:19;19.10;;;5.93;;
53666;SDS011;39568;51.026;5.468;2023-10-13T11:27:48;15.93;;;5.07;;
53666;SDS011;39568;51.026;5.468;2023-10-13T11:30:25;17.23;;;4.82;;
53666;SDS011;39568;51.026;5.468;2023-10-13T11:32:57;15.77;;;4.93;;
53666;SDS011;39568;51.026;5.468;2023-10-13T11:35:26;15.77;;;5.68;;
53666;SDS011;39568;51.026;5.468;2023-10-13T11:40:50;10.48;;;5.20;;
53666;SDS011;39568;51.026;5.468;2023-10-13T11:43:32;20.20;;;5.50;;
53666;SDS011;39568;51.026;5.468;2023-10-13T11:46:01;19.75;;;5.50;;
53666;SDS011;39568;51.026;5.468;2023-10-13T11:48:41;26.35;;;5.75;;
53666;SDS011;39568;51.026;5.468;2023-10-13T11:51:09;16.85;;;5.95;;
53666;SDS011;39568;51.026;5.468;2023-10-13T11:53:42;13.75;;;4.97;;
53666;SDS011;39568;51.026;5.468;2023-10-13T11:56:09;20.33;;;5.82;;
53666;SDS011;39568;51.026;5.468;2023-10-13T11:58:36;18.58;;;5.53;;
53666;SDS011;39568;51.026;5.468;2023-10-13T12:01:03;18.77;;;5.90;;
53666;SDS011;39568;51.026;5.468;2023-10-13T12:03:45;19.98;;;6.43;;
53666;SDS011;39568;51.026;5.468;2023-10-13T12:06:33;28.27;;;6.45;;
53666;SDS011;39568;51.026;5.468;2023-10-13T12:09:12;19.88;;;4.57;;
53666;SDS011;39568;51.026;5.468;2023-10-13T12:11:57;22.92;;;6.55;;
53666;SDS011;39568;51.026;5.468;2023-10-13T12:14:25;29.17;;;5.53;;
53666;SDS011;39568;51.026;5.468;2023-10-13T12:16:55;26.05;;;5.88;;
53666;SDS011;39568;51.026;5.468;2023-10-13T12:19:28;18.70;;;6.35;;
53666;SDS011;39568;51.026;5.468;2023-10-13T12:21:57;15.20;;;6.28;;
53666;SDS011;39568;51.026;5.468;2023-10-13T12:24:29;25.95;;;6.55;;
53666;SDS011;39568;51.026;5.468;2023-10-13T12:27:05;13.45;;;4.82;;
53666;SDS011;39568;51.026;5.468;2023-10-13T12:29:44;21.77;;;5.40;;
53666;SDS011;39568;51.026;5.468;2023-10-13T12:32:11;16.25;;;5.60;;
53666;SDS011;39568;51.026;5.468;2023-10-13T12:34:39;22.45;;;6.07;;
53666;SDS011;39568;51.026;5.468;2023-10-13T12:37:21;18.42;;;6.05;;
53666;SDS011;39568;51.026;5.468;2023-10-13T12:40:04;19.05;;;4.95;;
53666;SDS011;39568;51.026;5.468;2023-10-13T12:42:49;9.82;;;4.03;;
53666;SDS011;39568;51.026;5.468;2023-10-13T12:45:37;14.82;;;5.43;;
53666;SDS011;39568;51.026;5.468;2023-10-13T12:48:22;19.83;;;6.65;;
53666;SDS011;39568;51.026;5.468;2023-10-13T12:51:06;17.38;;;6.07;;
53666;SDS011;39568;51.026;5.468;2023-10-13T12:53:46;35.72;;;5.68;;
53666;SDS011;39568;51.026;5.468;2023-10-13T12:56:13;21.40;;;4.22;;
53666;SDS011;39568;51.026;5.468;2023-10-13T12:58:40;18.33;;;5.50;;
53666;SDS011;39568;51.026;5.468;2023-10-13T13:01:16;18.77;;;5.43;;
53666;SDS011;39568;51.026;5.468;2023-10-13T13:03:45;17.30;;;5.82;;
53666;SDS011;39568;51.026;5.468;2023-10-13T13:06:15;23.77;;;5.63;;
53666;SDS011;39568;51.026;5.468;2023-10-13T13:08:43;17.83;;;4.78;;
53666;SDS011;39568;51.026;5.468;2023-10-13T13:11:13;17.83;;;5.13;;
53666;SDS011;39568;51.026;5.468;2023-10-13T13:13:39;20.48;;;5.00;;
53666;SDS011;39568;51.026;5.468;2023-10-13T13:16:06;17.83;;;6.07;;
53666;SDS011;39568;51.026;5.468;2023-10-13T13:18:33;23.73;;;6.35;;
53666;SDS011;39568;51.026;5.468;2023-10-13T13:21:00;19.27;;;5.88;;
53666;SDS011;39568;51.026;5.468;2023-10-13T13:25:59;21.00;;;5.50;;
53666;SDS011;39568;51.026;5.468;2023-10-13T13:28:27;15.52;;;5.93;;
53666;SDS011;39568;51.026;5.468;2023-10-13T13:31:02;22.70;;;5.80;;
53666;SDS011;39568;51.026;5.468;2023-10-13T13:33:33;23.65;;;5.05;;
53666;SDS011;39568;51.026;5.468;2023-10-13T13:36:03;24.02;;;4.90;;
53666;SDS011;39568;51.026;5.468;2023-10-13T13:38:30;24.40;;;5.82;;
53666;SDS011;39568;51.026;5.468;2023-10-13T13:40:58;9.98;;;4.63;;
53666;SDS011;39568;51.026;5.468;2023-10-13T13:43:28;14.93;;;5.60;;
53666;SDS011;39568;51.026;5.468;2023-10-13T13:46:02;23.60;;;5.65;;
53666;SDS011;39568;51.026;5.468;2023-10-13T13:48:34;13.90;;;5.25;;
53666;SDS011;39568;51.026;5.468;2023-10-13T13:51:02;21.00;;;6.22;;
53666;SDS011;39568;51.026;5.468;2023-10-13T13:53:31;14.77;;;5.30;;
53666;SDS011;39568;51.026;5.468;2023-10-13T13:56:00;25.05;;;7.47;;
53666;SDS011;39568;51.026;5.468;2023-10-13T13:58:28;18.67;;;5.68;;
53666;SDS011;39568;51.026;5.468;2023-10-13T14:00:59;17.17;;;4.75;;
53666;SDS011;39568;51.026;5.468;2023-10-13T14:03:36;12.85;;;4.75;;
53666;SDS011;39568;51.026;5.468;2023-10-13T14:06:10;23.90;;;5.97;;
53666;SDS011;39568;51.026;5.468;2023-10-13T14:08:42;14.60;;;5.22;;
53666;SDS011;39568;51.026;5.468;2023-10-13T14:11:13;20.50;;;5.03;;
53666;SDS011;39568;51.026;5.468;2023-10-13T14:13:49;13.18;;;4.90;;
53666;SDS011;39568;51.026;5.468;2023-10-13T14:16:15;17.67;;;5.88;;
53666;SDS011;39568;51.026;5.468;2023-10-13T14:18:43;20.15;;;4.75;;
53666;SDS011;39568;51.026;5.468;2023-10-13T14:21:11;17.02;;;5.53;;
53666;SDS011;39568;51.026;5.468;2023-10-13T14:23:42;16.25;;;5.07;;
53666;SDS011;39568;51.026;5.468;2023-10-13T14:26:12;11.90;;;4.93;;
53666;SDS011;39568;51.026;5.468;2023-10-13T14:28:39;17.17;;;6.00;;
53666;SDS011;39568;51.026;5.468;2023-10-13T14:31:18;12.13;;;5.68;;
53666;SDS011;39568;51.026;5.468;2023-10-13T14:33:45;20.00;;;5.70;;
53666;SDS011;39568;51.026;5.468;2023-10-13T14:36:13;18.30;;;5.07;;
53666;SDS011;39568;51.026;5.468;2023-10-13T14:38:45;13.88;;;5.55;;
53666;SDS011;39568;51.026;5.468;2023-10-13T14:41:14;16.85;;;5.43;;
53666;SDS011;39568;51.026;5.468;2023-10-13T14:43:42;12.98;;;6.68;;
53666;SDS011;39568;51.026;5.468;2023-10-13T14:46:13;6.57;;;4.40;;
53666;SDS011;39568;51.026;5.468;2023-10-13T14:48:41;15.55;;;5.93;;
53666;SDS011;39568;51.026;5.468;2023-10-13T14:51:09;14.77;;;5.13;;
53666;SDS011;39568;51.026;5.468;2023-10-13T14:53:38;18.00;;;6.28;;
53666;SDS011;39568;51.026;5.468;2023-10-13T14:56:08;13.30;;;4.93;;
53666;SDS011;39568;51.026;5.468;2023-10-13T14:58:36;14.43;;;5.53;;
53666;SDS011;39568;51.026;5.468;2023-10-13T15:01:10;11.50;;;5.10;;
53666;SDS011;39568;51.026;5.468;2023-10-13T15:03:41;11.40;;;5.00;;
53666;SDS011;39568;51.026;5.468;2023-10-13T15:06:14;13.43;;;5.18;;
53666;SDS011;39568;51.026;5.468;2023-10-13T15:08:42;19.52;;;5.90;;
53666;SDS011;39568;51.026;5.468;2023-10-13T15:11:11;10.23;;;5.18;;
53666;SDS011;39568;51.026;5.468;2023-10-13T15:13:38;16.08;;;5.50;;
53666;SDS011;39568;51.026;5.468;2023-10-13T15:16:12;17.60;;;4.55;;
53666;SDS011;39568;51.026;5.468;2023-10-13T15:18:43;12.00;;;4.88;;
53666;SDS011;39568;51.026;5.468;2023-10-13T15:21:10;12.90;;;5.65;;
53666;SDS011;39568;51.026;5.468;2023-10-13T15:23:38;14.15;;;6.30;;
53666;SDS011;39568;51.026;5.468;2023-10-13T15:26:08;7.57;;;5.07;;